Time;durP1;ratioP1;P1;durP2;ratioP2;P2;SDS_P1;SDS_P2;PMS_P1;PMS_P2;Temp;Humidity;BMP_temperature;BMP_pressure;BME280_temperature;BME280_humidity;BME280_pressure;Samples;Min_cycle;Max_cycle;Signal;HPM_P1;HPM_P2
2021/03/15 00:08:10;;;;;;;23.83;11.38;;;;;;;2.77;100.00;99391.19;10153580;86;97957;-90
2021/03/15 00:23:16;;;;;;;47.90;20.57;;;;;;;2.57;100.00;99373.59;10079341;87;98960;-88
2021/03/15 00:38:20;;;;;;;23.10;11.65;;;;;;;2.54;100.00;99392.77;10050000;87;98895;-89
2021/03/15 00:53:25;;;;;;;123.47;50.63;;;;;;;2.59;100.00;99383.40;10019714;88;98929;-90
2021/03/15 01:08:29;;;;;;;25.62;13.00;;;;;;;2.70;100.00;99381.35;10017383;87;99081;-89
2021/03/15 01:23:33;;;;;;;25.23;13.30;;;;;;;2.77;100.00;99376.94;10159932;85;98825;-88
2021/03/15 01:38:38;;;;;;;182.62;82.90;;;;;;;2.96;100.00;99366.57;10229728;85;99009;-88
2021/03/15 01:53:44;;;;;;;54.80;24.02;;;;;;;2.89;100.00;99362.74;10229556;85;98952;-89
2021/03/15 02:08:49;;;;;;;17.25;8.78;;;;;;;2.66;100.00;99360.02;10223950;86;98712;-89
2021/03/15 02:23:58;;;;;;;15.45;8.18;;;;;;;2.43;100.00;99351.23;10328752;84;99176;-89
2021/03/15 02:39:06;;;;;;;22.85;10.08;;;;;;;2.20;100.00;99341.19;10463250;85;98675;-89
2021/03/15 02:54:14;;;;;;;27.02;13.83;;;;;;;2.20;100.00;99316.60;10527517;83;98810;-89
2021/03/15 03:09:20;;;;;;;24.10;10.60;;;;;;;2.52;100.00;99315.67;10513740;83;98809;-89
2021/03/15 03:24:25;;;;;;;17.40;8.67;;;;;;;2.48;100.00;99320.23;10474212;84;98465;-88
2021/03/15 03:39:29;;;;;;;21.30;10.23;;;;;;;1.98;100.00;99357.70;10476876;84;98694;-88
2021/03/15 03:54:39;;;;;;;17.32;9.10;;;;;;;1.98;100.00;99357.70;10487275;84;98838;-89
2021/03/15 04:09:45;;;;;;;19.42;10.08;;;;;;;1.88;100.00;99355.84;10435900;84;98283;-89
2021/03/15 04:24:51;;;;;;;28.83;12.05;;;;;;;1.77;100.00;99358.66;10450707;84;98834;-89
2021/03/15 04:39:56;;;;;;;30.27;15.47;;;;;;;1.54;100.00;99369.69;10310989;84;98557;-89
2021/03/15 04:55:01;;;;;;;23.22;11.28;;;;;;;1.34;100.00;99378.26;10398978;85;98942;-89
2021/03/15 05:10:09;;;;;;;46.50;20.85;;;;;;;1.19;100.00;99381.38;10390352;84;98871;-89
2021/03/15 05:25:15;;;;;;;35.48;16.67;;;;;;;1.34;100.00;99407.98;10311233;84;98874;-86
2021/03/15 05:40:22;;;;;;;32.60;16.45;;;;;;;1.77;100.00;99403.92;10457961;83;99012;-90
2021/03/15 05:56:13;;;;;;;30.48;16.45;;;;;;;1.94;100.00;99421.37;10341069;84;98870;-88
2021/03/15 06:11:20;;;;;;;44.58;19.12;;;;;;;2.02;100.00;99442.86;10291958;84;98567;-89
2021/03/15 06:26:25;;;;;;;42.75;19.32;;;;;;;2.06;100.00;99443.87;10414061;84;98639;-86
2021/03/15 06:41:32;;;;;;;76.65;48.55;;;;;;;1.97;100.00;99445.77;10429783;84;98905;-84
2021/03/15 06:56:36;;;;;;;60.73;32.30;;;;;;;1.96;100.00;99482.42;10348511;84;98927;-84
2021/03/15 07:11:42;;;;;;;71.80;42.03;;;;;;;2.01;100.00;99498.96;10389019;83;98854;-83
2021/03/15 07:26:47;;;;;;;82.17;40.13;;;;;;;2.21;100.00;99489.07;10521589;83;98950;-91
2021/03/15 07:41:55;;;;;;;46.07;25.67;;;;;;;2.22;100.00;99499.31;10342110;84;98630;-87
2021/03/15 07:57:13;;;;;;;;;;;;;;;2.32;100.00;99524.12;10326783;85;98945;-89
2021/03/15 08:12:19;;;;;;;47.60;27.20;;;;;;;2.44;100.00;99534.98;10307401;84;83618;-88
2021/03/15 08:27:24;;;;;;;52.55;27.62;;;;;;;2.52;100.00;99533.63;10372367;84;98856;-88
2021/03/15 08:42:29;;;;;;;69.92;30.95;;;;;;;2.68;100.00;99539.45;10380815;84;98963;-89
2021/03/15 08:57:36;;;;;;;67.80;29.73;;;;;;;2.86;100.00;99537.84;10229736;85;98927;-90
2021/03/15 09:12:41;;;;;;;60.92;35.10;;;;;;;3.01;100.00;99541.98;10180552;85;99094;-83
2021/03/15 09:27:51;;;;;;;43.78;23.47;;;;;;;3.11;100.00;99527.92;10407724;84;98980;-85
2021/03/15 09:42:57;;;;;;;45.70;23.55;;;;;;;3.50;100.00;99523.48;10400077;83;98435;-86
2021/03/15 09:58:08;;;;;;;64.25;28.07;;;;;;;3.49;100.00;99535.61;9986705;87;99016;-84
2021/03/15 10:13:16;;;;;;;80.12;36.15;;;;;;;3.42;100.00;99545.22;10110406;85;99106;-84
2021/03/15 10:28:22;;;;;;;43.02;21.23;;;;;;;3.79;100.00;99529.67;10281290;85;98819;-84
2021/03/15 10:43:29;;;;;;;50.23;21.33;;;;;;;3.92;100.00;99537.38;10230659;85;99001;-83
2021/03/15 10:58:39;;;;;;;60.88;29.23;;;;;;;4.01;100.00;99539.30;10106866;86;98669;-84
2021/03/15 11:13:45;;;;;;;149.70;71.72;;;;;;;4.13;100.00;99552.70;10365204;83;99189;-83
2021/03/15 11:28:55;;;;;;;72.23;34.90;;;;;;;4.33;100.00;99534.84;10433985;84;98646;-88
2021/03/15 11:44:00;;;;;;;45.73;23.50;;;;;;;4.42;100.00;99537.20;10440945;82;99105;-88
2021/03/15 11:59:05;;;;;;;87.22;40.70;;;;;;;4.59;100.00;99525.56;10406798;83;98674;-83
2021/03/15 12:14:09;;;;;;;146.00;62.48;;;;;;;4.55;100.00;99524.95;10413589;83;98672;-84
2021/03/15 12:29:13;;;;;;;52.58;33.73;;;;;;;4.52;100.00;99532.99;10377046;83;98768;-85
2021/03/15 12:44:18;;;;;;;39.23;21.43;;;;;;;4.63;100.00;99520.48;10408103;84;98910;-85
2021/03/15 12:59:23;;;;;;;40.95;22.87;;;;;;;4.63;100.00;99520.48;10321722;84;98480;-85
2021/03/15 13:14:28;;;;;;;68.72;31.87;;;;;;;4.99;100.00;99532.95;10396412;84;98857;-82
2021/03/15 13:29:33;;;;;;;55.70;25.15;;;;;;;5.22;100.00;99519.94;10387497;83;98825;-86
2021/03/15 13:44:38;;;;;;;31.95;14.87;;;;;;;5.76;100.00;99509.19;10404939;83;99026;-85
2021/03/15 13:59:42;;;;;;;36.83;16.23;;;;;;;6.14;100.00;99516.52;10403617;83;99074;-84
2021/03/15 14:14:48;;;;;;;40.05;21.95;;;;;;;6.21;100.00;99508.22;10402106;83;99023;-87
2021/03/15 14:29:56;;;;;;;44.98;19.92;;;;;;;6.07;100.00;99518.44;10468395;83;99109;-86
2021/03/15 14:45:04;;;;;;;36.23;17.60;;;;;;;14.38;90.70;99508.24;10498966;83;98774;-82
2021/03/15 15:00:13;;;;;;;26.12;15.20;;;;;;;10.60;73.92;99515.59;10442218;83;99173;-84
2021/03/15 15:15:19;;;;;;;38.30;17.55;;;;;;;8.73;89.28;99497.63;10478434;83;98467;-84
2021/03/15 15:30:26;;;;;;;;;;;;;;;9.07;87.60;99490.55;10441619;83;99039;-84
2021/03/15 15:45:31;;;;;;;50.95;24.18;;;;;;;6.79;94.10;99499.92;10393786;83;84766;-86
2021/03/15 16:00:37;;;;;;;42.55;18.17;;;;;;;6.17;98.02;99520.66;10410817;83;98740;-84
2021/03/15 16:15:42;;;;;;;32.95;15.25;;;;;;;6.03;100.00;99523.09;10412762;83;98764;-84
2021/03/15 16:30:47;;;;;;;340.43;143.22;;;;;;;5.83;100.00;99528.10;10503043;83;99150;-84
2021/03/15 16:45:56;;;;;;;108.57;61.77;;;;;;;5.59;100.00;99566.48;10375862;84;99285;-83
2021/03/15 17:01:02;;;;;;;102.35;48.25;;;;;;;4.77;100.00;99574.03;10301927;84;99217;-84
2021/03/15 17:16:07;;;;;;;340.85;124.40;;;;;;;4.64;100.00;99581.91;10292177;84;99214;-83
2021/03/15 17:31:17;;;;;;;283.00;109.67;;;;;;;4.69;100.00;99591.48;10292411;85;99279;-84
